AIB359 LBSF-EHAM
Flight info
| Callsign | AIB359 |
|---|---|
| Flight time | 2h 24m |
| Altitude | 40000 |
| Route | LBSF/09 OGOTA3S OGOTA T228 UTEKA DCT TONDO DCT OKORA DCT PESAT DCT DITIS DCT VARIK DCT KATCE DCT AMSAN T281 NORKU NORKU2A EHAM/06 |
| Aircraft | A359/H-SDE2E3GHIJ3J4J5LM1ORWXY/LB1D1 |
Departure
| Time | 2026-05-04 15:26 |
|---|---|
| Airport | Sofia Airport (LBSF) |
Arrival
| Time | 2026-05-04 17:50 |
|---|---|
| Airport | Amsterdam Airport Schiphol (EHAM) |
| Time | Latitude | Longitude | Altitude | Speed | Heading |
|---|---|---|---|---|---|
| 2026-05-04 14:51 | 42.69012 | 23.41013 | 1762 ft | 0 kts | 162° |
| 2026-05-04 15:16 | 42.69059 | 23.41002 | 1765 ft | 4 kts | 184° |
| 2026-05-04 15:17 | 42.69084 | 23.41008 | 1765 ft | 4 kts | 205° |
| 2026-05-04 15:17 | 42.69109 | 23.41038 | 1765 ft | 0 kts | 252° |
| 2026-05-04 15:20 | 42.69107 | 23.41029 | 1765 ft | 7 kts | 252° |
| 2026-05-04 15:21 | 42.69089 | 23.40941 | 1762 ft | 12 kts | 254° |
| 2026-05-04 15:21 | 42.69064 | 23.40829 | 1759 ft | 12 kts | 256° |
| 2026-05-04 15:21 | 42.69107 | 23.40555 | 1762 ft | 16 kts | 287° |
| 2026-05-04 15:22 | 42.69145 | 23.40390 | 1761 ft | 20 kts | 287° |
| 2026-05-04 15:22 | 42.69189 | 23.40196 | 1760 ft | 20 kts | 287° |
| 2026-05-04 15:22 | 42.69276 | 23.39867 | 1762 ft | 22 kts | 285° |
| 2026-05-04 15:23 | 42.69308 | 23.39701 | 1763 ft | 15 kts | 284° |
| 2026-05-04 15:23 | 42.69353 | 23.39589 | 1764 ft | 15 kts | 327° |
| 2026-05-04 15:23 | 42.69457 | 23.39574 | 1764 ft | 10 kts | 3° |
| 2026-05-04 15:23 | 42.69538 | 23.39582 | 1762 ft | 13 kts | 4° |
| 2026-05-04 15:24 | 42.69689 | 23.39596 | 1762 ft | 5 kts | 4° |
| 2026-05-04 15:24 | 42.69763 | 23.39680 | 1763 ft | 10 kts | 80° |
| 2026-05-04 15:25 | 42.69765 | 23.39756 | 1763 ft | 0 kts | 93° |
| 2026-05-04 15:25 | 42.69765 | 23.39759 | 1763 ft | 1 kts | 93° |
| 2026-05-04 15:25 | 42.69754 | 23.39987 | 1762 ft | 66 kts | 94° |
| 2026-05-04 15:26 | 42.69562 | 23.42930 | 2626 ft | 204 kts | 95° |
| 2026-05-04 15:26 | 42.69367 | 23.44822 | 3625 ft | 205 kts | 101° |
| 2026-05-04 15:26 | 42.69118 | 23.48901 | 4525 ft | 232 kts | 70° |
| 2026-05-04 15:27 | 42.70073 | 23.50687 | 5104 ft | 243 kts | 34° |
| 2026-05-04 15:27 | 42.73451 | 23.51147 | 6698 ft | 256 kts | 355° |
| 2026-05-04 15:28 | 42.77044 | 23.50730 | 8377 ft | 263 kts | 351° |
| 2026-05-04 15:28 | 42.78787 | 23.49882 | 9230 ft | 271 kts | 339° |
| 2026-05-04 15:28 | 42.82094 | 23.47189 | 10610 ft | 291 kts | 330° |
| 2026-05-04 15:29 | 42.83806 | 23.45538 | 10889 ft | 312 kts | 329° |
| 2026-05-04 15:30 | 42.91294 | 23.38011 | 12917 ft | 347 kts | 328° |
| 2026-05-04 15:30 | 42.97286 | 23.32117 | 14713 ft | 360 kts | 328° |
| 2026-05-04 15:31 | 43.01391 | 23.28138 | 15950 ft | 362 kts | 328° |
| 2026-05-04 15:31 | 43.03461 | 23.26134 | 16531 ft | 366 kts | 328° |
| 2026-05-04 15:32 | 43.09775 | 23.19988 | 18241 ft | 377 kts | 327° |
| 2026-05-04 15:32 | 43.14077 | 23.15787 | 19240 ft | 383 kts | 327° |
| 2026-05-04 15:33 | 43.18456 | 23.11510 | 20212 ft | 389 kts | 326° |
| 2026-05-04 15:34 | 43.25120 | 23.04995 | 21648 ft | 398 kts | 326° |
| 2026-05-04 15:34 | 43.27385 | 23.02772 | 22112 ft | 401 kts | 326° |
| 2026-05-04 15:34 | 43.31959 | 22.98289 | 22986 ft | 407 kts | 325° |
| 2026-05-04 15:35 | 43.36601 | 22.93713 | 23827 ft | 414 kts | 324° |
| 2026-05-04 15:35 | 43.38948 | 22.91390 | 24202 ft | 417 kts | 324° |
| 2026-05-04 15:35 | 43.41307 | 22.89054 | 24563 ft | 420 kts | 324° |
| 2026-05-04 15:36 | 43.46060 | 22.84350 | 25299 ft | 426 kts | 324° |
| 2026-05-04 15:36 | 43.48476 | 22.81957 | 25689 ft | 429 kts | 323° |
| 2026-05-04 15:36 | 43.50907 | 22.79550 | 26102 ft | 433 kts | 323° |
| 2026-05-04 15:37 | 43.53367 | 22.77112 | 26526 ft | 436 kts | 323° |
| 2026-05-04 15:37 | 43.55844 | 22.74653 | 26973 ft | 439 kts | 323° |
| 2026-05-04 15:37 | 43.58332 | 22.72177 | 27477 ft | 441 kts | 323° |
| 2026-05-04 15:37 | 43.60826 | 22.69693 | 27997 ft | 444 kts | 323° |
| 2026-05-04 15:38 | 43.63338 | 22.67189 | 28528 ft | 447 kts | 323° |
| 2026-05-04 15:38 | 43.65872 | 22.64658 | 29033 ft | 450 kts | 323° |
| 2026-05-04 15:38 | 43.68421 | 22.62113 | 29575 ft | 454 kts | 323° |
| 2026-05-04 15:38 | 43.70988 | 22.59549 | 30129 ft | 457 kts | 323° |
| 2026-05-04 15:39 | 43.73545 | 22.56993 | 30591 ft | 460 kts | 324° |
| 2026-05-04 15:39 | 43.76134 | 22.54398 | 31160 ft | 460 kts | 324° |
| 2026-05-04 15:39 | 43.81323 | 22.49187 | 32278 ft | 461 kts | 325° |
| 2026-05-04 15:40 | 43.83926 | 22.46569 | 32775 ft | 463 kts | 325° |
| 2026-05-04 15:40 | 43.86537 | 22.43939 | 33257 ft | 464 kts | 325° |
| 2026-05-04 15:40 | 43.89152 | 22.41297 | 33743 ft | 466 kts | 325° |
| 2026-05-04 15:40 | 43.91673 | 22.38450 | 34155 ft | 469 kts | 320° |
| 2026-05-04 15:41 | 43.94084 | 22.35378 | 34495 ft | 472 kts | 319° |
| 2026-05-04 15:41 | 43.96470 | 22.32236 | 34822 ft | 475 kts | 318° |
| 2026-05-04 15:41 | 43.98854 | 22.29033 | 35268 ft | 474 kts | 318° |
| 2026-05-04 15:41 | 44.01211 | 22.25830 | 35780 ft | 473 kts | 317° |
| 2026-05-04 15:42 | 44.03562 | 22.22629 | 36246 ft | 473 kts | 317° |
| 2026-05-04 15:42 | 44.05907 | 22.19434 | 36699 ft | 472 kts | 317° |
| 2026-05-04 15:42 | 44.08253 | 22.16240 | 37183 ft | 472 kts | 317° |
| 2026-05-04 15:42 | 44.10597 | 22.13052 | 37628 ft | 471 kts | 317° |
| 2026-05-04 15:43 | 44.12938 | 22.09866 | 38080 ft | 471 kts | 317° |
| 2026-05-04 15:43 | 44.15287 | 22.06670 | 38526 ft | 470 kts | 317° |
| 2026-05-04 15:43 | 44.17592 | 22.03530 | 38916 ft | 470 kts | 317° |
| 2026-05-04 15:43 | 44.19930 | 22.00342 | 39236 ft | 469 kts | 316° |
| 2026-05-04 15:44 | 44.22261 | 21.97159 | 39569 ft | 469 kts | 316° |
| 2026-05-04 15:44 | 44.24588 | 21.93977 | 39893 ft | 469 kts | 316° |
| 2026-05-04 15:44 | 44.26932 | 21.90769 | 40063 ft | 471 kts | 316° |
| 2026-05-04 15:45 | 44.31599 | 21.84370 | 40089 ft | 470 kts | 316° |
| 2026-05-04 15:45 | 44.36256 | 21.77967 | 40091 ft | 470 kts | 316° |
| 2026-05-04 15:46 | 44.40914 | 21.71550 | 40093 ft | 470 kts | 316° |
| 2026-05-04 15:46 | 44.45553 | 21.65143 | 40105 ft | 469 kts | 316° |
| 2026-05-04 15:47 | 44.50208 | 21.58698 | 40102 ft | 470 kts | 316° |
| 2026-05-04 15:47 | 44.54833 | 21.52281 | 40099 ft | 471 kts | 316° |
| 2026-05-04 15:48 | 44.59500 | 21.45790 | 40095 ft | 472 kts | 316° |
| 2026-05-04 15:48 | 44.66486 | 21.36044 | 40095 ft | 472 kts | 316° |
| 2026-05-04 15:49 | 44.71148 | 21.29521 | 40090 ft | 472 kts | 316° |
| 2026-05-04 15:49 | 44.75798 | 21.22999 | 40090 ft | 471 kts | 316° |
| 2026-05-04 15:50 | 44.80432 | 21.16483 | 40086 ft | 471 kts | 316° |
| 2026-05-04 15:50 | 44.85061 | 21.09960 | 40085 ft | 470 kts | 316° |
| 2026-05-04 15:51 | 44.88899 | 21.04538 | 40089 ft | 470 kts | 316° |
| 2026-05-04 15:51 | 44.94257 | 20.96950 | 40087 ft | 469 kts | 316° |
| 2026-05-04 15:52 | 44.98083 | 20.91522 | 40085 ft | 468 kts | 316° |
| 2026-05-04 15:52 | 45.02669 | 20.84998 | 40086 ft | 468 kts | 315° |
| 2026-05-04 15:53 | 45.07252 | 20.78464 | 40090 ft | 467 kts | 315° |
| 2026-05-04 15:53 | 45.11827 | 20.71926 | 40088 ft | 467 kts | 315° |
| 2026-05-04 15:54 | 45.16394 | 20.65382 | 40091 ft | 467 kts | 315° |
| 2026-05-04 15:54 | 45.20964 | 20.58818 | 40093 ft | 468 kts | 315° |
| 2026-05-04 15:55 | 45.25533 | 20.52240 | 40090 ft | 468 kts | 315° |
| 2026-05-04 15:55 | 45.30098 | 20.45652 | 40086 ft | 468 kts | 315° |
| 2026-05-04 15:56 | 45.34632 | 20.39091 | 40086 ft | 468 kts | 315° |
| 2026-05-04 15:56 | 45.39201 | 20.32465 | 40087 ft | 468 kts | 315° |
| 2026-05-04 15:57 | 45.43753 | 20.25848 | 40083 ft | 469 kts | 315° |
| 2026-05-04 15:57 | 45.48311 | 20.19205 | 40086 ft | 469 kts | 315° |
| 2026-05-04 15:58 | 45.52864 | 20.12552 | 40084 ft | 469 kts | 315° |
| 2026-05-04 15:58 | 45.57410 | 20.05895 | 40083 ft | 468 kts | 315° |
| 2026-05-04 15:59 | 45.61957 | 19.99219 | 40085 ft | 468 kts | 315° |
| 2026-05-04 15:59 | 45.66492 | 19.92543 | 40081 ft | 467 kts | 315° |
| 2026-05-04 16:00 | 45.70988 | 19.85910 | 40081 ft | 467 kts | 315° |
| 2026-05-04 16:00 | 45.75510 | 19.79221 | 40080 ft | 467 kts | 315° |
| 2026-05-04 16:01 | 45.80019 | 19.72534 | 40078 ft | 467 kts | 314° |
| 2026-05-04 16:01 | 45.84535 | 19.65821 | 40076 ft | 466 kts | 314° |
| 2026-05-04 16:02 | 45.89030 | 19.59120 | 40070 ft | 466 kts | 314° |
| 2026-05-04 16:03 | 45.95737 | 19.49002 | 40072 ft | 466 kts | 314° |
| 2026-05-04 16:03 | 46.00208 | 19.42269 | 40068 ft | 466 kts | 314° |
| 2026-05-04 16:04 | 46.04657 | 19.35576 | 40068 ft | 466 kts | 314° |
| 2026-05-04 16:04 | 46.11673 | 19.25893 | 40065 ft | 465 kts | 317° |
| 2026-05-04 16:05 | 46.16463 | 19.19595 | 40062 ft | 465 kts | 317° |
| 2026-05-04 16:06 | 46.23576 | 19.10050 | 40060 ft | 465 kts | 317° |
| 2026-05-04 16:07 | 46.32994 | 18.97236 | 40056 ft | 465 kts | 316° |
| 2026-05-04 16:08 | 46.42407 | 18.84367 | 40053 ft | 465 kts | 316° |
| 2026-05-04 16:09 | 46.54150 | 18.68230 | 40050 ft | 465 kts | 316° |
| 2026-05-04 16:10 | 46.63507 | 18.55299 | 40044 ft | 465 kts | 316° |
| 2026-05-04 16:11 | 46.72883 | 18.42276 | 40042 ft | 465 kts | 316° |
| 2026-05-04 16:12 | 46.87040 | 18.22888 | 40040 ft | 465 kts | 317° |
| 2026-05-04 16:13 | 46.96500 | 18.10002 | 40033 ft | 465 kts | 317° |
| 2026-05-04 16:14 | 47.05950 | 17.97030 | 40032 ft | 466 kts | 317° |
| 2026-05-04 16:16 | 47.17752 | 17.80739 | 40018 ft | 465 kts | 316° |
| 2026-05-04 16:17 | 47.29502 | 17.64417 | 39998 ft | 464 kts | 316° |
| 2026-05-04 16:18 | 47.38879 | 17.51317 | 39994 ft | 464 kts | 316° |
| 2026-05-04 16:19 | 47.50560 | 17.34902 | 39994 ft | 464 kts | 316° |
| 2026-05-04 16:20 | 47.62243 | 17.18378 | 39989 ft | 464 kts | 316° |
| 2026-05-04 16:22 | 47.73829 | 17.01800 | 39980 ft | 463 kts | 315° |
| 2026-05-04 16:23 | 47.87039 | 16.80829 | 39960 ft | 462 kts | 313° |
| 2026-05-04 16:25 | 48.00197 | 16.59779 | 39940 ft | 462 kts | 313° |
| 2026-05-04 16:26 | 48.15475 | 16.35132 | 39943 ft | 462 kts | 312° |
| 2026-05-04 16:28 | 48.26352 | 16.17442 | 39940 ft | 463 kts | 312° |
| 2026-05-04 16:29 | 48.41591 | 15.92455 | 39935 ft | 464 kts | 311° |
| 2026-05-04 16:31 | 48.52466 | 15.74477 | 39938 ft | 464 kts | 311° |
| 2026-05-04 16:32 | 48.65460 | 15.52834 | 39944 ft | 464 kts | 311° |
| 2026-05-04 16:33 | 48.74118 | 15.38313 | 39947 ft | 465 kts | 311° |
| 2026-05-04 16:34 | 48.80602 | 15.27384 | 39945 ft | 465 kts | 311° |
| 2026-05-04 16:35 | 48.93462 | 15.05294 | 39948 ft | 465 kts | 308° |
| 2026-05-04 16:36 | 48.99481 | 14.93791 | 39946 ft | 465 kts | 307° |
| 2026-05-04 16:37 | 49.05555 | 14.82250 | 39941 ft | 465 kts | 308° |
| 2026-05-04 16:38 | 49.13654 | 14.66935 | 39947 ft | 465 kts | 308° |
| 2026-05-04 16:39 | 49.23109 | 14.48940 | 39947 ft | 465 kts | 308° |
| 2026-05-04 16:40 | 49.31177 | 14.33484 | 39952 ft | 465 kts | 307° |
| 2026-05-04 16:41 | 49.41225 | 14.14109 | 39951 ft | 465 kts | 307° |
| 2026-05-04 16:43 | 49.51254 | 13.94628 | 39957 ft | 464 kts | 307° |
| 2026-05-04 16:43 | 49.57263 | 13.82888 | 39951 ft | 465 kts | 307° |
| 2026-05-04 16:45 | 49.69233 | 13.59341 | 39935 ft | 465 kts | 307° |
| 2026-05-04 16:46 | 49.79185 | 13.39606 | 39935 ft | 465 kts | 307° |
| 2026-05-04 16:47 | 49.87111 | 13.23780 | 39940 ft | 465 kts | 306° |
| 2026-05-04 16:48 | 49.94993 | 13.07948 | 39960 ft | 465 kts | 306° |
| 2026-05-04 16:49 | 50.02887 | 12.91995 | 39961 ft | 465 kts | 306° |
| 2026-05-04 16:50 | 50.10761 | 12.75988 | 39969 ft | 466 kts | 306° |
| 2026-05-04 16:51 | 50.16669 | 12.63914 | 39965 ft | 466 kts | 306° |
| 2026-05-04 16:52 | 50.24496 | 12.47828 | 39959 ft | 466 kts | 306° |
| 2026-05-04 16:53 | 50.30352 | 12.35736 | 39962 ft | 467 kts | 306° |
| 2026-05-04 16:54 | 50.38287 | 12.19540 | 39965 ft | 467 kts | 306° |
| 2026-05-04 16:55 | 50.50095 | 11.95246 | 39963 ft | 468 kts | 305° |
| 2026-05-04 16:56 | 50.59936 | 11.74807 | 39960 ft | 469 kts | 305° |
| 2026-05-04 16:57 | 50.65826 | 11.62500 | 39960 ft | 469 kts | 305° |
| 2026-05-04 16:58 | 50.73638 | 11.46085 | 39960 ft | 469 kts | 304° |
| 2026-05-04 17:00 | 50.85364 | 11.21248 | 39965 ft | 470 kts | 304° |
| 2026-05-04 17:01 | 50.95079 | 11.00495 | 39963 ft | 470 kts | 304° |
| 2026-05-04 17:02 | 51.02849 | 10.83773 | 39965 ft | 470 kts | 304° |
| 2026-05-04 17:03 | 51.08656 | 10.71208 | 39969 ft | 471 kts | 303° |
| 2026-05-04 17:03 | 51.14450 | 10.58605 | 39966 ft | 471 kts | 303° |
| 2026-05-04 17:04 | 51.22173 | 10.41715 | 39959 ft | 472 kts | 303° |
| 2026-05-04 17:05 | 51.28623 | 10.23634 | 39951 ft | 468 kts | 293° |
| 2026-05-04 17:06 | 51.32770 | 10.09513 | 39958 ft | 468 kts | 292° |
| 2026-05-04 17:07 | 51.36435 | 9.96946 | 39958 ft | 468 kts | 292° |
| 2026-05-04 17:07 | 51.39638 | 9.85963 | 39955 ft | 468 kts | 292° |
| 2026-05-04 17:08 | 51.43745 | 9.71815 | 39454 ft | 467 kts | 292° |
| 2026-05-04 17:08 | 51.45113 | 9.67080 | 39224 ft | 468 kts | 292° |
| 2026-05-04 17:09 | 51.46477 | 9.62350 | 39018 ft | 468 kts | 291° |
| 2026-05-04 17:09 | 51.47843 | 9.57602 | 38784 ft | 467 kts | 291° |
| 2026-05-04 17:09 | 51.49203 | 9.52869 | 38536 ft | 467 kts | 291° |
| 2026-05-04 17:10 | 51.51921 | 9.43376 | 37968 ft | 467 kts | 291° |
| 2026-05-04 17:10 | 51.55963 | 9.29186 | 37134 ft | 469 kts | 291° |
| 2026-05-04 17:11 | 51.57319 | 9.24406 | 36859 ft | 469 kts | 291° |
| 2026-05-04 17:11 | 51.58675 | 9.19621 | 36601 ft | 469 kts | 291° |
| 2026-05-04 17:11 | 51.61374 | 9.10056 | 36079 ft | 470 kts | 290° |
| 2026-05-04 17:12 | 51.62726 | 9.05253 | 35816 ft | 471 kts | 290° |
| 2026-05-04 17:12 | 51.65424 | 8.95636 | 35321 ft | 471 kts | 290° |
| 2026-05-04 17:13 | 51.69267 | 8.81866 | 34626 ft | 473 kts | 290° |
| 2026-05-04 17:14 | 51.73286 | 8.67372 | 33905 ft | 474 kts | 289° |
| 2026-05-04 17:14 | 51.74628 | 8.62494 | 33641 ft | 474 kts | 289° |
| 2026-05-04 17:14 | 51.77287 | 8.52741 | 33082 ft | 476 kts | 289° |
| 2026-05-04 17:15 | 51.78626 | 8.47828 | 32811 ft | 477 kts | 289° |
| 2026-05-04 17:15 | 51.81306 | 8.38010 | 32284 ft | 478 kts | 289° |
| 2026-05-04 17:16 | 51.83996 | 8.28148 | 31764 ft | 480 kts | 289° |
| 2026-05-04 17:16 | 51.88030 | 8.13281 | 30814 ft | 482 kts | 289° |
| 2026-05-04 17:17 | 51.89373 | 8.08309 | 30406 ft | 482 kts | 289° |
| 2026-05-04 17:17 | 51.93351 | 7.93525 | 29032 ft | 475 kts | 289° |
| 2026-05-04 17:18 | 51.94664 | 7.88623 | 28566 ft | 472 kts | 289° |
| 2026-05-04 17:18 | 51.97254 | 7.78918 | 27665 ft | 466 kts | 289° |
| 2026-05-04 17:19 | 51.99810 | 7.69303 | 26794 ft | 461 kts | 289° |
| 2026-05-04 17:19 | 52.02332 | 7.59771 | 25940 ft | 457 kts | 289° |
| 2026-05-04 17:20 | 52.04821 | 7.50323 | 25114 ft | 452 kts | 289° |
| 2026-05-04 17:20 | 52.07263 | 7.41020 | 24318 ft | 448 kts | 289° |
| 2026-05-04 17:20 | 52.08480 | 7.36367 | 23919 ft | 446 kts | 289° |
| 2026-05-04 17:21 | 52.10893 | 7.27112 | 23105 ft | 442 kts | 289° |
| 2026-05-04 17:21 | 52.13287 | 7.17904 | 22857 ft | 440 kts | 289° |
| 2026-05-04 17:22 | 52.14546 | 7.13375 | 22412 ft | 440 kts | 293° |
| 2026-05-04 17:22 | 52.16132 | 7.09078 | 21907 ft | 442 kts | 301° |
| 2026-05-04 17:23 | 52.21684 | 6.97357 | 20336 ft | 431 kts | 304° |
| 2026-05-04 17:23 | 52.23560 | 6.93560 | 19842 ft | 428 kts | 306° |
| 2026-05-04 17:23 | 52.26694 | 6.87346 | 19043 ft | 422 kts | 306° |
| 2026-05-04 17:24 | 52.28548 | 6.83660 | 18574 ft | 419 kts | 306° |
| 2026-05-04 17:24 | 52.34018 | 6.72705 | 17023 ft | 409 kts | 306° |
| 2026-05-04 17:25 | 52.35798 | 6.69129 | 16535 ft | 405 kts | 306° |
| 2026-05-04 17:25 | 52.39321 | 6.62020 | 15513 ft | 398 kts | 306° |
| 2026-05-04 17:26 | 52.42773 | 6.55039 | 14543 ft | 390 kts | 306° |
| 2026-05-04 17:26 | 52.46942 | 6.44042 | 13043 ft | 372 kts | 281° |
| 2026-05-04 17:27 | 52.47486 | 6.35694 | 12007 ft | 366 kts | 272° |
| 2026-05-04 17:27 | 52.47854 | 6.27477 | 11027 ft | 361 kts | 273° |
| 2026-05-04 17:28 | 52.48240 | 6.19295 | 10053 ft | 358 kts | 273° |
| 2026-05-04 17:29 | 52.48807 | 6.07519 | 8533 ft | 327 kts | 273° |
| 2026-05-04 17:29 | 52.49305 | 5.96824 | 7140 ft | 300 kts | 272° |
| 2026-05-04 17:30 | 52.49725 | 5.87401 | 6969 ft | 265 kts | 272° |
| 2026-05-04 17:31 | 52.49993 | 5.81438 | 6968 ft | 261 kts | 272° |
| 2026-05-04 17:31 | 52.50395 | 5.72530 | 6969 ft | 261 kts | 272° |
| 2026-05-04 17:32 | 52.50660 | 5.66589 | 6880 ft | 261 kts | 272° |
| 2026-05-04 17:33 | 52.50984 | 5.57736 | 6204 ft | 257 kts | 265° |
| 2026-05-04 17:33 | 52.50541 | 5.54908 | 5957 ft | 255 kts | 249° |
| 2026-05-04 17:34 | 52.47927 | 5.47408 | 5205 ft | 254 kts | 237° |
| 2026-05-04 17:34 | 52.46953 | 5.45005 | 4957 ft | 252 kts | 237° |
| 2026-05-04 17:35 | 52.44135 | 5.37915 | 4591 ft | 233 kts | 238° |
| 2026-05-04 17:35 | 52.42502 | 5.33678 | 4403 ft | 207 kts | 238° |
| 2026-05-04 17:35 | 52.41737 | 5.31645 | 4304 ft | 208 kts | 239° |
| 2026-05-04 17:36 | 52.40957 | 5.29550 | 4233 ft | 222 kts | 239° |
| 2026-05-04 17:36 | 52.40151 | 5.27369 | 4137 ft | 225 kts | 239° |
| 2026-05-04 17:36 | 52.39338 | 5.25182 | 4026 ft | 224 kts | 238° |
| 2026-05-04 17:36 | 52.38454 | 5.23115 | 3922 ft | 224 kts | 234° |
| 2026-05-04 17:37 | 52.37496 | 5.21112 | 3829 ft | 222 kts | 233° |
| 2026-05-04 17:37 | 52.36516 | 5.19102 | 3714 ft | 224 kts | 233° |
| 2026-05-04 17:37 | 52.35557 | 5.17138 | 3619 ft | 224 kts | 233° |
| 2026-05-04 17:37 | 52.34587 | 5.15152 | 3534 ft | 224 kts | 233° |
| 2026-05-04 17:38 | 52.33611 | 5.13164 | 3436 ft | 223 kts | 232° |
| 2026-05-04 17:38 | 52.32644 | 5.11189 | 3346 ft | 226 kts | 233° |
| 2026-05-04 17:38 | 52.31661 | 5.09179 | 3204 ft | 225 kts | 232° |
| 2026-05-04 17:38 | 52.30691 | 5.07192 | 3039 ft | 223 kts | 233° |
| 2026-05-04 17:39 | 52.28748 | 5.03235 | 2762 ft | 223 kts | 233° |
| 2026-05-04 17:39 | 52.27770 | 5.01258 | 2602 ft | 224 kts | 232° |
| 2026-05-04 17:39 | 52.26806 | 4.99307 | 2457 ft | 224 kts | 232° |
| 2026-05-04 17:40 | 52.25831 | 4.97326 | 2303 ft | 224 kts | 232° |
| 2026-05-04 17:40 | 52.24858 | 4.95345 | 2092 ft | 222 kts | 232° |
| 2026-05-04 17:40 | 52.23900 | 4.93407 | 1956 ft | 214 kts | 233° |
| 2026-05-04 17:40 | 52.22969 | 4.91564 | 2011 ft | 210 kts | 232° |
| 2026-05-04 17:41 | 52.22030 | 4.89714 | 2001 ft | 212 kts | 232° |
| 2026-05-04 17:41 | 52.21088 | 4.87856 | 1993 ft | 213 kts | 232° |
| 2026-05-04 17:41 | 52.20146 | 4.85988 | 1994 ft | 214 kts | 232° |
| 2026-05-04 17:41 | 52.19305 | 4.83992 | 1992 ft | 213 kts | 240° |
| 2026-05-04 17:42 | 52.18565 | 4.81903 | 1989 ft | 212 kts | 242° |
| 2026-05-04 17:42 | 52.17834 | 4.79811 | 1991 ft | 213 kts | 242° |
| 2026-05-04 17:42 | 52.17099 | 4.77718 | 1994 ft | 213 kts | 242° |
| 2026-05-04 17:42 | 52.16368 | 4.75625 | 1983 ft | 211 kts | 242° |
| 2026-05-04 17:43 | 52.15666 | 4.73637 | 1992 ft | 194 kts | 242° |
| 2026-05-04 17:43 | 52.14992 | 4.71753 | 2005 ft | 191 kts | 243° |
| 2026-05-04 17:43 | 52.14329 | 4.69902 | 1999 ft | 192 kts | 242° |
| 2026-05-04 17:43 | 52.13658 | 4.68025 | 1991 ft | 192 kts | 242° |
| 2026-05-04 17:44 | 52.13026 | 4.66102 | 1984 ft | 191 kts | 250° |
| 2026-05-04 17:44 | 52.12929 | 4.64001 | 1988 ft | 187 kts | 286° |
| 2026-05-04 17:44 | 52.13593 | 4.62264 | 1998 ft | 181 kts | 320° |
| 2026-05-04 17:44 | 52.14609 | 4.61097 | 1992 ft | 178 kts | 330° |
| 2026-05-04 17:45 | 52.15671 | 4.60077 | 1990 ft | 175 kts | 332° |
| 2026-05-04 17:45 | 52.16673 | 4.59130 | 1992 ft | 159 kts | 332° |
| 2026-05-04 17:45 | 52.17683 | 4.58482 | 1999 ft | 156 kts | 350° |
| 2026-05-04 17:45 | 52.18761 | 4.58367 | 1997 ft | 155 kts | 0° |
| 2026-05-04 17:46 | 52.19832 | 4.58393 | 1990 ft | 154 kts | 1° |
| 2026-05-04 17:46 | 52.20900 | 4.58441 | 1992 ft | 153 kts | 2° |
| 2026-05-04 17:46 | 52.21973 | 4.58488 | 1991 ft | 153 kts | 2° |
| 2026-05-04 17:46 | 52.23009 | 4.58700 | 1978 ft | 154 kts | 21° |
| 2026-05-04 17:47 | 52.23792 | 4.59886 | 1984 ft | 158 kts | 55° |
| 2026-05-04 17:47 | 52.24274 | 4.61493 | 1793 ft | 157 kts | 62° |
| 2026-05-04 17:47 | 52.24768 | 4.63081 | 1571 ft | 154 kts | 58° |
| 2026-05-04 17:47 | 52.25284 | 4.64348 | 1397 ft | 152 kts | 49° |
| 2026-05-04 17:48 | 52.25871 | 4.65781 | 1181 ft | 150 kts | 56° |
| 2026-05-04 17:48 | 52.26392 | 4.67202 | 977 ft | 143 kts | 55° |
| 2026-05-04 17:48 | 52.26911 | 4.68537 | 770 ft | 135 kts | 53° |
| 2026-05-04 17:48 | 52.27402 | 4.69807 | 596 ft | 131 kts | 54° |
| 2026-05-04 17:49 | 52.27885 | 4.71066 | 411 ft | 130 kts | 54° |
| 2026-05-04 17:49 | 52.28360 | 4.72303 | 241 ft | 125 kts | 54° |
| 2026-05-04 17:49 | 52.28804 | 4.73451 | 92 ft | 114 kts | 53° |
| 2026-05-04 17:49 | 52.29209 | 4.74488 | 8 ft | 101 kts | 58° |
| 2026-05-04 17:50 | 52.29491 | 4.75232 | 4 ft | 50 kts | 58° |
| 2026-05-04 17:50 | 52.29615 | 4.75551 | 5 ft | 21 kts | 59° |
| 2026-05-04 17:50 | 52.29687 | 4.75704 | 4 ft | 16 kts | 43° |
| 2026-05-04 17:50 | 52.29776 | 4.75800 | 5 ft | 12 kts | 30° |
| 2026-05-04 17:51 | 52.29862 | 4.75873 | 5 ft | 14 kts | 27° |
| 2026-05-04 17:51 | 52.29926 | 4.75927 | 5 ft | 7 kts | 27° |
| 2026-05-04 17:51 | 52.29981 | 4.75986 | 5 ft | 12 kts | 41° |
| 2026-05-04 17:51 | 52.30040 | 4.76114 | 5 ft | 16 kts | 57° |
| 2026-05-04 17:52 | 52.30073 | 4.76199 | 5 ft | 10 kts | 57° |
| 2026-05-04 17:52 | 52.30116 | 4.76310 | 5 ft | 11 kts | 57° |
| 2026-05-04 17:52 | 52.30165 | 4.76440 | 6 ft | 16 kts | 59° |
| 2026-05-04 17:52 | 52.30232 | 4.76612 | 5 ft | 20 kts | 58° |
| 2026-05-04 17:53 | 52.30293 | 4.76774 | 5 ft | 16 kts | 58° |
| 2026-05-04 17:53 | 52.30348 | 4.76919 | 5 ft | 10 kts | 57° |
| 2026-05-04 17:53 | 52.30396 | 4.77039 | 5 ft | 15 kts | 58° |
| 2026-05-04 17:53 | 52.30452 | 4.77187 | 5 ft | 15 kts | 58° |
| 2026-05-04 17:54 | 52.30499 | 4.77308 | 5 ft | 13 kts | 58° |
| 2026-05-04 17:54 | 52.30549 | 4.77440 | 5 ft | 10 kts | 57° |
| 2026-05-04 17:54 | 52.30606 | 4.77548 | 5 ft | 15 kts | 37° |
| 2026-05-04 17:54 | 52.30713 | 4.77591 | 5 ft | 18 kts | 5° |
| 2026-05-04 17:55 | 52.30851 | 4.77605 | 5 ft | 22 kts | 3° |
| 2026-05-04 17:55 | 52.30998 | 4.77620 | 5 ft | 19 kts | 3° |
| 2026-05-04 17:55 | 52.31104 | 4.77629 | 5 ft | 14 kts | 2° |
| 2026-05-04 17:55 | 52.31197 | 4.77637 | 5 ft | 11 kts | 3° |
| 2026-05-04 17:56 | 52.31267 | 4.77603 | 5 ft | 10 kts | 309° |
| 2026-05-04 17:56 | 52.31283 | 4.77488 | 5 ft | 11 kts | 275° |
| 2026-05-04 17:56 | 52.31289 | 4.77346 | 5 ft | 10 kts | 272° |
| 2026-05-04 17:56 | 52.31283 | 4.77295 | 5 ft | 5 kts | 240° |
| 2026-05-04 17:57 | 52.31246 | 4.77275 | 5 ft | 7 kts | 186° |
| 2026-05-04 17:57 | 52.31226 | 4.77272 | 5 ft | 0 kts | 185° |
| 2026-05-04 17:57 | 52.31223 | 4.77272 | 5 ft | 0 kts | 185° |